aviador You're here:

KLIC Decoded Metar

LIMON in CO, USA
Report Time2017-07-22 23:55:00
UTC Time2017-07-23 00:44:41
Flight Rules vfr VFR
Wind110° at 08 kt
W.Decomp.*RWY 16: 3.9 kt HW 7 kt LCW
W.Rank110° ranks 22
Current wind is above 110° avg. (7.5)
Visibility9999 m
Phenomena:N/A
Clouds:N/A
Expected CloudBase > 4,800 ft AGL from Temp-Dew spread
CeilingNone
Temp26°C (ISA +22)
Dew Point14°C (48% RH)
AAT24.4°C
QNH1022 hPa
Density Alt7,740 ft
Elevation5,348 ft
Report Wrong Elevation
Raw Report
KLIC 222355Z AUTO 11008KT 10SM CLR 26/14 A3017 RMK AO2 SLP141
T02610139 10294 20244 56006=

Extra information for KLIC:More info

Metar Taf Metar & Taf Last 4 Metars F.Rules Stats Wind Profile Meteogram Temp Stats Airport Information Weather charts Add Link Nearby VenuesMetar ALERT Operation Metar Decoded Social comments

AIRNAV info for KLIC